Terminal Aerodrome Forecast
Issued by NWS

Home | Current Version | Previous Version | Text Only | Print | Product List | Glossary On
Versions: 1 2 3 4 5 6 7 8 9 10 11 12 13 14 15 16 17 18 19 20 21 22 23 24
000
FTUS41 KRNK 261129
TAFBCB
TAF
KBCB 261129Z 2612/2712 VRB03KT P6SM OVC080
      TEMPO 2612/2614 OVC020
     FM261700 17008KT P6SM OVC030
      TEMPO 2617/2619 4SM -SHRA OVC050
     FM261900 17007KT P6SM OVC040
     FM270000 17005KT 5SM -SHRA BKN030
     FM270400 17006KT P6SM VCSH OVC015
     FM270800 18006KT 6SM BR OVC015=

USA.gov is the U.S. government's official web portal to all federal, state and local government web resources and services.